createdAt,value
2018-12-05T05:08:11.106Z,93.70
2018-12-05T05:09:46.777Z,93.30
2018-12-05T05:11:24.381Z,93.40
2018-12-05T05:13:00.897Z,93.10
2018-12-05T05:14:38.874Z,93.20
2018-12-05T05:16:14.979Z,92.90
2018-12-05T05:17:50.817Z,93.70
2018-12-05T05:19:27.203Z,92.80
2018-12-05T05:21:03.326Z,93.20
2018-12-05T05:22:38.624Z,93.20
2018-12-05T05:24:17.179Z,93.10
2018-12-05T05:25:56.307Z,93.90
2018-12-05T05:27:35.885Z,94.30
2018-12-05T05:29:13.698Z,93.90
2018-12-05T05:30:50.081Z,93.90
2018-12-05T05:32:31.955Z,93.30
2018-12-05T05:34:11.535Z,93.10
2018-12-05T05:35:57.179Z,93.20
2018-12-05T05:37:44.941Z,93.30
2018-12-05T05:39:43.618Z,93.00
2018-12-05T05:41:28.288Z,92.80
2018-12-05T05:43:12.789Z,92.90
2018-12-05T05:44:59.989Z,92.60
2018-12-05T05:46:55.591Z,92.60
2018-12-05T05:48:54.646Z,92.60
2018-12-05T06:40:30.763Z,94.80
2018-12-05T06:42:11.998Z,95.20
2018-12-05T06:43:52.398Z,94.60
2018-12-05T06:45:31.061Z,94.40
2018-12-05T06:47:07.215Z,94.50
2018-12-05T06:48:43.234Z,94.10
2018-12-05T06:50:20.147Z,94.90
2018-12-05T06:51:55.585Z,95.30
2018-12-05T06:53:31.537Z,95.30
2018-12-05T06:55:10.480Z,93.90
2018-12-05T06:56:48.176Z,94.00
2018-12-05T06:58:25.890Z,96.00
2018-12-05T07:00:03.603Z,96.00
2018-12-05T07:01:48.417Z,95.70
2018-12-05T07:03:29.882Z,95.60
2018-12-05T07:05:15.826Z,96.50
2018-12-05T07:07:00.073Z,96.10
2018-12-05T07:08:41.038Z,95.50
2018-12-05T07:10:24.747Z,95.50
2018-12-05T07:12:10.512Z,94.80
2018-12-05T07:14:04.490Z,95.30
2018-12-05T07:15:45.270Z,95.20
2018-12-05T07:54:03.969Z,93.90
2018-12-05T07:55:39.332Z,95.40
2018-12-05T07:57:19.691Z,92.00
2018-12-05T08:11:21.086Z,92.20
2018-12-05T08:12:56.342Z,91.90
2018-12-05T08:14:31.517Z,91.90
2018-12-05T08:16:06.691Z,92.00
2018-12-05T08:17:42.029Z,92.10
2018-12-05T08:19:17.385Z,92.00
2018-12-05T08:20:52.684Z,91.90
2018-12-05T08:22:40.015Z,91.80
2018-12-05T08:26:59.608Z,92.10
2018-12-05T08:28:39.357Z,91.60
2018-12-05T08:30:15.665Z,91.60
2018-12-05T08:31:52.941Z,91.60
2018-12-05T08:33:34.044Z,91.30
2018-12-05T08:35:16.822Z,91.10
2018-12-05T08:36:58.853Z,90.70
2018-12-05T08:38:56.260Z,90.60
2018-12-05T08:40:53.704Z,90.50
2018-12-05T08:42:41.958Z,90.70
2018-12-05T08:44:17.408Z,91.10
2018-12-05T08:46:15.012Z,91.30
2018-12-05T08:48:17.161Z,91.00
2018-12-05T08:50:01.250Z,90.60
2018-12-05T08:51:50.848Z,90.50
2018-12-05T08:53:40.959Z,90.40
2018-12-05T08:55:42.210Z,90.20
2018-12-05T08:57:29.685Z,90.20
2018-12-05T08:59:22.721Z,90.00
2018-12-05T09:21:35.873Z,85.00
2018-12-05T09:23:43.128Z,85.20
2018-12-05T09:25:39.838Z,84.90
2018-12-05T09:27:32.097Z,84.70
2018-12-05T09:29:22.276Z,84.20
2018-12-05T09:31:20.122Z,84.20
2018-12-05T09:32:56.853Z,83.30
2018-12-05T09:34:34.427Z,83.20
2018-12-05T09:36:15.702Z,81.70
2018-12-05T09:37:51.003Z,79.60
2018-12-05T09:39:26.312Z,77.80
2018-12-05T09:41:01.496Z,78.00
2018-12-05T09:42:36.658Z,76.90
2018-12-05T09:44:11.933Z,76.80
2018-12-05T09:45:49.330Z,77.20
2018-12-05T09:47:28.319Z,77.60
2018-12-05T09:49:59.370Z,78.30
2018-12-05T12:01:56.651Z,61.30
2018-12-05T12:03:31.660Z,62.60
2018-12-05T12:05:07.278Z,61.40
2018-12-05T12:06:42.236Z,61.50
2018-12-05T12:08:17.265Z,60.90
2018-12-05T12:09:52.258Z,60.80
2018-12-05T12:11:27.231Z,61.70
2018-12-05T12:13:05.957Z,62.60
2018-12-05T12:14:41.014Z,63.70
2018-12-05T12:16:16.307Z,64.70
2018-12-05T12:17:51.272Z,65.70
2018-12-05T12:19:26.201Z,65.70
2018-12-05T12:21:01.273Z,64.70
2018-12-05T12:22:36.216Z,64.50
2018-12-05T12:24:11.218Z,64.60
2018-12-05T12:25:46.245Z,64.70
2018-12-05T12:27:21.304Z,65.30
2018-12-05T12:28:56.209Z,64.80
2018-12-05T12:30:31.129Z,64.60
2018-12-05T12:32:06.091Z,65.50
2018-12-05T12:33:41.072Z,66.20
2018-12-05T12:35:16.035Z,66.70
2018-12-05T12:36:50.945Z,67.40
2018-12-05T12:38:25.854Z,68.40
2018-12-05T12:40:00.826Z,69.00
2018-12-05T12:41:35.748Z,68.60
2018-12-05T12:43:10.775Z,68.70
2018-12-05T12:44:45.746Z,68.10
2018-12-05T12:46:20.960Z,68.20
2018-12-05T12:47:55.916Z,67.60
2018-12-05T12:49:31.027Z,67.50
2018-12-05T12:51:06.096Z,67.20
2018-12-05T12:52:41.157Z,67.10
2018-12-05T12:54:16.071Z,68.00
2018-12-05T12:55:50.993Z,68.30
2018-12-05T12:57:25.911Z,68.40
2018-12-05T12:59:01.067Z,68.10
2018-12-05T13:00:36.210Z,68.90
2018-12-05T13:02:11.143Z,68.90
2018-12-05T13:03:46.076Z,69.00
2018-12-05T13:05:21.108Z,68.70
2018-12-05T13:06:56.015Z,68.60
2018-12-05T13:08:31.036Z,68.40
2018-12-05T13:10:07.212Z,68.90
2018-12-05T13:11:42.225Z,69.00
2018-12-05T13:13:17.167Z,68.10
2018-12-05T13:14:52.152Z,68.40
2018-12-05T13:16:27.095Z,69.10
2018-12-05T13:18:02.098Z,68.70
2018-12-05T13:19:37.053Z,68.70
2018-12-05T13:21:12.055Z,68.80
2018-12-05T13:22:47.030Z,66.80
2018-12-05T13:24:22.339Z,67.10
2018-12-05T13:25:57.243Z,66.30
2018-12-05T13:27:32.148Z,67.10
2018-12-05T13:29:07.133Z,65.20
2018-12-05T13:30:42.128Z,61.60
2018-12-05T13:32:17.058Z,61.30
2018-12-05T13:33:52.650Z,58.80
2018-12-05T13:35:28.161Z,58.10
2018-12-05T13:37:03.336Z,58.80
2018-12-05T13:38:38.464Z,58.70
2018-12-05T13:40:13.616Z,58.30
2018-12-05T13:41:48.623Z,57.90
2018-12-05T13:43:23.528Z,58.00
2018-12-05T13:44:58.540Z,58.30
2018-12-05T13:46:33.624Z,58.40
2018-12-05T13:48:08.711Z,58.00
2018-12-05T13:49:43.665Z,58.50
2018-12-05T13:51:18.671Z,58.90
2018-12-05T13:52:53.642Z,59.10
2018-12-05T13:54:28.548Z,59.90
2018-12-05T13:56:03.476Z,60.40
2018-12-05T13:57:38.540Z,61.00
2018-12-05T13:59:13.476Z,62.30
2018-12-05T14:00:48.599Z,62.00
2018-12-05T14:02:23.480Z,62.60
2018-12-05T14:03:58.587Z,62.20
2018-12-05T14:05:33.547Z,63.80
2018-12-05T14:07:08.583Z,63.80
2018-12-05T14:08:43.532Z,64.30
2018-12-05T14:10:18.488Z,65.00
2018-12-05T14:11:53.559Z,64.00
2018-12-05T14:13:28.603Z,65.50
2018-12-05T14:15:03.628Z,65.80
2018-12-05T14:16:38.598Z,66.00
2018-12-05T14:18:13.576Z,66.20
2018-12-05T14:19:48.584Z,66.20
2018-12-05T14:21:23.524Z,66.20
2018-12-05T14:22:58.403Z,66.60
2018-12-05T14:24:33.320Z,67.00
2018-12-05T14:26:08.269Z,67.50
2018-12-05T14:27:43.279Z,67.00
2018-12-05T14:29:18.220Z,66.90
2018-12-05T14:30:53.152Z,66.80
2018-12-05T14:32:28.263Z,66.80
2018-12-05T14:34:03.287Z,67.00
2018-12-05T14:35:38.245Z,67.00
2018-12-05T14:37:13.131Z,67.10
2018-12-05T14:38:48.063Z,67.70
2018-12-05T14:40:23.049Z,68.10
2018-12-05T14:41:58.048Z,68.50
2018-12-05T14:43:33.017Z,69.80
2018-12-05T14:45:08.223Z,70.20
2018-12-05T14:46:43.188Z,71.00
2018-12-05T14:48:18.169Z,72.00
2018-12-05T14:49:53.094Z,71.50
2018-12-05T14:51:28.037Z,72.00
2018-12-05T14:53:02.935Z,72.30
2018-12-05T14:54:37.892Z,73.00
2018-12-05T14:56:12.889Z,73.80
2018-12-05T14:57:47.835Z,73.80
2018-12-05T14:59:22.799Z,73.60
2018-12-05T15:00:57.728Z,73.70
2018-12-05T15:02:32.710Z,74.60
2018-12-05T15:04:07.679Z,74.50
2018-12-05T15:05:42.593Z,74.50
2018-12-05T15:07:17.532Z,75.30
2018-12-05T15:08:52.495Z,74.80
2018-12-05T15:10:27.424Z,75.30
2018-12-05T15:12:02.499Z,76.30
2018-12-05T15:13:37.413Z,76.30
2018-12-05T15:15:12.463Z,76.80
2018-12-05T15:16:47.415Z,77.00
2018-12-05T15:18:22.362Z,77.10
2018-12-05T15:19:57.368Z,78.20
2018-12-05T15:21:32.299Z,78.70
2018-12-05T15:23:07.196Z,79.00
2018-12-05T15:24:42.129Z,79.20
2018-12-05T15:26:17.096Z,79.10
2018-12-05T15:27:52.077Z,79.00
2018-12-05T15:29:26.984Z,79.00
2018-12-05T15:31:01.863Z,79.30
2018-12-05T15:32:36.834Z,79.80
2018-12-05T15:34:11.901Z,79.60
2018-12-05T15:35:46.877Z,80.50
2018-12-05T15:37:21.824Z,80.30
2018-12-05T15:38:56.868Z,80.30
2018-12-05T15:40:31.796Z,81.10
2018-12-05T15:42:06.808Z,80.40
2018-12-05T15:43:41.728Z,80.70
2018-12-05T15:45:21.468Z,80.80
2018-12-05T15:46:53.708Z,80.60
2018-12-05T15:48:28.692Z,80.90
2018-12-05T15:50:03.631Z,81.10
2018-12-05T15:51:38.612Z,81.80
2018-12-05T15:53:13.568Z,83.40
2018-12-05T15:54:48.540Z,83.40
2018-12-05T15:56:23.471Z,84.00
2018-12-05T15:57:58.423Z,83.50
2018-12-05T15:59:33.375Z,85.40
2018-12-05T16:01:08.636Z,85.80
2018-12-05T16:02:43.590Z,86.40
2018-12-05T16:04:18.508Z,86.70
2018-12-05T16:05:53.440Z,86.80
2018-12-05T16:07:28.432Z,87.80
2018-12-05T16:09:03.582Z,88.20
2018-12-05T16:10:38.509Z,87.60
2018-12-05T16:12:13.437Z,86.80
2018-12-05T16:13:48.436Z,87.50
2018-12-05T16:15:23.461Z,88.00
2018-12-05T16:16:58.391Z,88.10
2018-12-05T16:18:33.314Z,87.50
2018-12-05T16:20:08.604Z,88.10
2018-12-05T16:21:43.596Z,88.40
2018-12-05T16:23:18.680Z,88.80
2018-12-05T16:24:53.597Z,88.70
2018-12-05T16:26:28.576Z,88.80
2018-12-05T16:28:03.589Z,89.10
2018-12-05T16:29:38.516Z,89.40
2018-12-05T16:31:13.443Z,88.10
2018-12-05T16:32:48.389Z,88.70
2018-12-05T16:34:23.396Z,88.90
2018-12-05T16:35:58.365Z,89.10
2018-12-05T16:37:33.365Z,89.70
2018-12-05T16:39:09.912Z,89.10
2018-12-05T16:40:44.881Z,89.50
2018-12-05T16:42:19.988Z,89.80
2018-12-05T16:43:55.095Z,90.00
2018-12-05T16:45:35.651Z,90.00
2018-12-05T16:47:11.120Z,90.10
2018-12-05T16:48:46.132Z,90.00
2018-12-05T16:50:21.137Z,90.10
2018-12-05T16:51:56.303Z,89.60
2018-12-05T16:53:31.904Z,90.00
2018-12-05T16:55:07.219Z,89.50
2018-12-05T16:56:42.272Z,89.80
2018-12-05T16:58:17.312Z,90.10
2018-12-05T16:59:52.485Z,89.80
2018-12-05T17:01:27.645Z,89.70
2018-12-05T17:03:05.772Z,89.90
2018-12-05T17:04:40.755Z,89.90
2018-12-05T17:06:16.591Z,90.00
2018-12-05T17:07:51.901Z,90.30
2018-12-05T17:09:26.999Z,90.10
2018-12-05T17:11:02.160Z,89.70
2018-12-05T17:12:37.082Z,90.20
2018-12-05T17:14:12.254Z,89.00
2018-12-05T17:15:47.213Z,90.00
2018-12-05T17:17:22.359Z,90.40
2018-12-05T17:18:57.283Z,90.50
2018-12-05T17:20:32.515Z,90.50
2018-12-05T17:22:07.612Z,90.60
2018-12-05T17:23:42.764Z,90.60
2018-12-05T17:25:17.941Z,90.70
2018-12-05T17:26:52.953Z,90.70
2018-12-05T17:28:27.876Z,91.00
2018-12-05T17:30:02.809Z,90.40
2018-12-05T17:31:37.767Z,90.80
2018-12-05T17:33:12.951Z,90.70
2018-12-05T17:34:48.263Z,91.10
2018-12-05T17:36:23.375Z,91.00
2018-12-05T17:37:58.477Z,90.90
2018-12-05T17:39:33.521Z,90.90
2018-12-05T17:41:08.428Z,90.90
2018-12-05T17:42:43.376Z,91.00
2018-12-05T17:44:18.388Z,91.20
2018-12-05T17:45:53.618Z,91.30
2018-12-05T17:47:28.699Z,91.20
2018-12-05T17:49:03.885Z,91.20
2018-12-05T17:50:38.984Z,91.10
2018-12-05T17:52:13.962Z,90.80
2018-12-05T17:53:49.116Z,90.90
2018-12-05T17:55:24.296Z,90.80
2018-12-05T17:56:59.592Z,90.90
2018-12-05T17:58:34.763Z,91.00
2018-12-05T18:00:10.046Z,90.90
2018-12-05T18:01:45.068Z,90.90
2018-12-05T18:03:20.134Z,90.70
2018-12-05T18:04:55.072Z,90.90
2018-12-05T18:06:30.598Z,90.80
2018-12-05T18:08:05.786Z,90.80
2018-12-05T18:09:40.784Z,90.70
2018-12-05T18:11:16.916Z,90.70
2018-12-05T18:12:52.541Z,90.60
2018-12-05T18:14:27.771Z,90.80
2018-12-05T18:16:02.768Z,90.70
2018-12-05T18:17:38.119Z,90.90
2018-12-05T18:19:13.093Z,90.90
2018-12-05T18:20:48.144Z,90.70
2018-12-05T18:22:23.218Z,90.70
2018-12-05T18:23:58.397Z,90.50
2018-12-05T18:25:33.561Z,90.40
2018-12-05T18:27:09.001Z,90.90
2018-12-05T18:28:44.041Z,90.60
2018-12-05T18:30:19.422Z,90.70
2018-12-05T18:31:54.648Z,90.60
2018-12-05T18:33:29.802Z,90.70
2018-12-05T18:35:05.831Z,90.90
2018-12-05T18:36:41.122Z,90.50
2018-12-05T18:38:16.146Z,90.40
2018-12-05T18:39:51.447Z,90.10
2018-12-05T18:41:26.916Z,90.10
2018-12-05T18:43:02.065Z,89.80
2018-12-05T18:44:37.532Z,90.30
2018-12-05T18:46:12.524Z,90.50
2018-12-05T18:47:47.799Z,90.50
2018-12-05T18:49:22.810Z,90.60
2018-12-05T18:50:58.062Z,90.40
2018-12-05T18:52:33.449Z,90.20
2018-12-05T18:54:09.093Z,90.40
2018-12-05T18:55:44.198Z,90.20
2018-12-05T18:57:19.244Z,89.90
2018-12-05T18:58:54.379Z,89.70
2018-12-05T19:00:29.356Z,89.90
2018-12-05T19:02:04.798Z,89.80
2018-12-05T19:03:39.864Z,89.70
2018-12-05T19:05:14.957Z,89.40
2018-12-05T19:06:50.636Z,89.30
2018-12-05T19:08:25.823Z,89.00
2018-12-05T19:10:00.870Z,88.40
2018-12-05T19:11:35.833Z,87.90
2018-12-05T19:13:12.861Z,87.80
2018-12-05T19:14:48.121Z,87.60
2018-12-05T19:16:29.800Z,87.50
2018-12-05T19:18:05.399Z,87.30
2018-12-05T19:19:40.744Z,87.30
2018-12-05T19:21:15.835Z,87.30
2018-12-05T19:22:50.805Z,87.20
2018-12-05T19:24:25.976Z,87.30
2018-12-05T19:26:01.072Z,87.30
2018-12-05T19:27:36.171Z,87.40
2018-12-05T19:29:11.666Z,87.60
2018-12-05T19:30:47.660Z,88.10
2018-12-05T19:32:22.600Z,88.20
2018-12-05T19:33:57.768Z,88.40
2018-12-05T19:35:34.774Z,88.80
2018-12-05T19:37:09.936Z,89.00
2018-12-05T19:38:45.065Z,89.00
2018-12-05T19:40:20.175Z,89.30
2018-12-05T19:41:55.580Z,88.90
2018-12-05T19:43:30.678Z,88.60
2018-12-05T19:45:07.057Z,88.30
2018-12-05T19:46:42.017Z,89.10
2018-12-05T19:48:17.072Z,88.90
2018-12-05T19:49:52.064Z,88.80
2018-12-05T19:51:27.089Z,88.80
2018-12-05T19:53:02.039Z,88.70
2018-12-05T19:54:36.991Z,89.40
2018-12-05T19:56:12.041Z,88.70
2018-12-05T19:57:47.164Z,88.70
2018-12-05T19:59:22.187Z,88.70
2018-12-05T22:02:38.175Z,88.40
